Time,TemperatureF,DewpointF,PressureIn,WindDirection,WindDirectionDegrees,WindSpeedMPH,WindSpeedGustMPH,Humidity,HourlyPrecipIn,Conditions,Clouds,dailyrainin,SolarRadiationWatts/m^2,SoftwareType,DateUTC
2013-04-19 00:03:00,70.0,63.0,-100.00,SSE,151,7.0,12.0,79,0.00,,,0.00,0.000000,,2013-04-19 04:03:00,
2013-04-19 00:33:00,70.0,64.0,-100.00,SSE,162,6.0,13.0,80,0.00,,,0.00,0.000000,,2013-04-19 04:33:00,
2013-04-19 00:43:00,70.0,64.0,-100.00,SSE,162,6.0,13.0,80,0.00,,,0.00,0.000000,,2013-04-19 04:43:00,
2013-04-19 00:52:00,70.0,64.0,-100.00,SSE,162,6.0,13.0,80,0.00,,,0.00,0.000000,,2013-04-19 04:52:00,
2013-04-19 01:03:00,70.0,64.0,-100.00,SSE,162,6.0,13.0,80,0.00,,,0.00,0.000000,,2013-04-19 05:03:00,
2013-04-19 01:32:00,69.0,64.0,-100.00,SSE,154,7.0,14.0,85,0.00,,,0.00,0.000000,,2013-04-19 05:32:00,
2013-04-19 01:42:00,69.0,64.0,-100.00,SSE,154,7.0,14.0,85,0.00,,,0.00,0.000000,,2013-04-19 05:42:00,
2013-04-19 01:52:00,69.0,64.0,-100.00,SSE,154,7.0,14.0,85,0.00,,,0.00,0.000000,,2013-04-19 05:52:00,
2013-04-19 02:02:00,69.0,64.0,-100.00,SSE,154,7.0,14.0,85,0.00,,,0.00,0.000000,,2013-04-19 06:02:00,
2013-04-19 02:32:00,69.0,65.0,-100.00,South,171,7.0,13.0,86,0.00,,,0.00,0.000000,,2013-04-19 06:32:00,
2013-04-19 02:42:00,69.0,65.0,-100.00,South,171,7.0,13.0,86,0.00,,,0.00,0.000000,,2013-04-19 06:42:00,
2013-04-19 02:53:00,69.0,65.0,-100.00,South,171,7.0,13.0,86,0.00,,,0.00,0.000000,,2013-04-19 06:53:00,
2013-04-19 03:02:00,69.0,65.0,-100.00,South,171,7.0,13.0,86,0.00,,,0.00,0.000000,,2013-04-19 07:02:00,
2013-04-19 04:33:00,69.0,65.0,-100.00,South,170,9.0,16.0,87,-99.99,,,0.00,0.000000,,2013-04-19 08:33:00,
2013-04-19 04:42:00,69.0,65.0,-100.00,South,170,9.0,16.0,87,-99.99,,,0.00,0.000000,,2013-04-19 08:42:00,
2013-04-19 04:52:00,69.0,65.0,-100.00,South,170,9.0,16.0,87,-99.99,,,0.00,0.000000,,2013-04-19 08:52:00,
2013-04-19 05:01:00,69.0,65.0,-100.00,South,170,9.0,16.0,87,-99.99,,,0.00,0.000000,,2013-04-19 09:01:00,
2013-04-19 05:33:00,69.0,66.0,-100.00,SSE,160,7.0,18.0,90,0.00,,,0.00,0.000000,,2013-04-19 09:33:00,
2013-04-19 05:43:00,69.0,66.0,-100.00,SSE,160,7.0,18.0,90,0.00,,,0.00,0.000000,,2013-04-19 09:43:00,
2013-04-19 05:52:00,69.0,66.0,-100.00,SSE,160,7.0,18.0,90,0.00,,,0.00,0.000000,,2013-04-19 09:52:00,
2013-04-19 06:02:00,69.0,66.0,-100.00,SSE,160,7.0,18.0,90,0.00,,,0.00,0.000000,,2013-04-19 10:02:00,
2013-04-19 06:33:00,67.0,65.0,-100.00,SSW,201,10.0,25.0,93,0.03,,,0.03,0.000000,,2013-04-19 10:33:00,
2013-04-19 06:42:00,67.0,65.0,-100.00,SSW,201,10.0,25.0,93,0.03,,,0.03,0.000000,,2013-04-19 10:42:00,
2013-04-19 06:52:00,67.0,65.0,-100.00,SSW,201,10.0,25.0,93,0.03,,,0.03,0.000000,,2013-04-19 10:52:00,
2013-04-19 07:03:00,67.0,65.0,-100.00,SSW,201,10.0,25.0,93,0.03,,,0.03,0.000000,,2013-04-19 11:03:00,
2013-04-19 07:32:00,67.0,65.0,-100.00,SSW,205,11.0,20.0,93,0.07,,,0.10,3.000000,,2013-04-19 11:32:00,
2013-04-19 07:43:00,67.0,65.0,-100.00,SSW,205,11.0,20.0,93,0.07,,,0.10,3.000000,,2013-04-19 11:43:00,
2013-04-19 07:52:00,67.0,65.0,-100.00,SSW,205,11.0,20.0,93,0.07,,,0.10,3.000000,,2013-04-19 11:52:00,
2013-04-19 08:03:00,67.0,65.0,-100.00,SSW,205,11.0,20.0,93,0.07,,,0.10,3.000000,,2013-04-19 12:03:00,
2013-04-19 08:32:00,68.0,66.0,-100.00,SSW,205,10.0,26.0,92,0.03,,,0.13,28.000000,,2013-04-19 12:32:00,
2013-04-19 08:42:00,68.0,66.0,-100.00,SSW,205,10.0,26.0,92,0.03,,,0.13,28.000000,,2013-04-19 12:42:00,
2013-04-19 08:53:00,68.0,66.0,-100.00,SSW,205,10.0,26.0,92,0.03,,,0.13,28.000000,,2013-04-19 12:53:00,
2013-04-19 09:01:00,68.0,66.0,-100.00,SSW,205,10.0,26.0,92,0.03,,,0.13,28.000000,,2013-04-19 13:01:00,
2013-04-19 09:32:00,72.0,69.0,-100.00,SSW,192,10.0,18.0,91,0.07,,,0.20,197.000000,,2013-04-19 13:32:00,
2013-04-19 09:42:00,72.0,69.0,-100.00,SSW,192,10.0,18.0,91,0.07,,,0.20,197.000000,,2013-04-19 13:42:00,
2013-04-19 09:52:00,72.0,69.0,-100.00,SSW,192,10.0,18.0,91,0.07,,,0.20,197.000000,,2013-04-19 13:52:00,
2013-04-19 10:02:00,72.0,69.0,-100.00,SSW,192,10.0,18.0,91,0.07,,,0.20,197.000000,,2013-04-19 14:02:00,
2013-04-19 10:32:00,72.0,68.0,-100.00,SSW,196,12.0,21.0,88,0.01,,,0.21,437.000000,,2013-04-19 14:32:00,
2013-04-19 10:43:00,72.0,68.0,-100.00,SSW,196,12.0,21.0,88,0.01,,,0.21,437.000000,,2013-04-19 14:43:00,
2013-04-19 10:52:00,72.0,68.0,-100.00,SSW,196,12.0,21.0,88,0.01,,,0.21,437.000000,,2013-04-19 14:52:00,
2013-04-19 11:02:00,72.0,68.0,-100.00,SSW,196,12.0,21.0,88,0.01,,,0.21,437.000000,,2013-04-19 15:02:00,
2013-04-19 11:33:00,73.0,69.0,-100.00,South,186,12.0,20.0,86,0.00,,,0.21,428.000000,,2013-04-19 15:33:00,
2013-04-19 11:43:00,73.0,69.0,-100.00,South,186,12.0,20.0,86,0.00,,,0.21,428.000000,,2013-04-19 15:43:00,
2013-04-19 11:52:00,73.0,69.0,-100.00,South,186,12.0,20.0,86,0.00,,,0.21,428.000000,,2013-04-19 15:52:00,
2013-04-19 12:03:00,73.0,69.0,-100.00,South,186,12.0,20.0,86,0.00,,,0.21,428.000000,,2013-04-19 16:03:00,
2013-04-19 12:33:00,75.0,69.0,-100.00,SSW,192,13.0,23.0,82,0.00,,,0.21,727.000000,,2013-04-19 16:33:00,
2013-04-19 12:43:00,75.0,69.0,-100.00,SSW,192,13.0,23.0,82,0.00,,,0.21,727.000000,,2013-04-19 16:43:00,
2013-04-19 12:53:00,75.0,69.0,-100.00,SSW,192,13.0,23.0,82,0.00,,,0.21,727.000000,,2013-04-19 16:53:00,
2013-04-19 13:02:00,75.0,69.0,-100.00,SSW,192,13.0,23.0,82,0.00,,,0.21,727.000000,,2013-04-19 17:02:00,
2013-04-19 13:33:00,75.0,69.0,-100.00,South,187,13.0,26.0,82,0.00,,,0.21,691.000000,,2013-04-19 17:33:00,
2013-04-19 13:43:00,75.0,69.0,-100.00,South,187,13.0,26.0,82,0.00,,,0.21,691.000000,,2013-04-19 17:43:00,
2013-04-19 13:52:00,75.0,69.0,-100.00,South,187,13.0,26.0,82,0.00,,,0.21,691.000000,,2013-04-19 17:52:00,
2013-04-19 14:02:00,75.0,69.0,-100.00,South,187,13.0,26.0,82,0.00,,,0.21,691.000000,,2013-04-19 18:02:00,
2013-04-19 14:33:00,74.0,69.0,-100.00,SSW,192,12.0,23.0,85,0.00,,,0.21,408.000000,,2013-04-19 18:33:00,
2013-04-19 14:43:00,74.0,69.0,-100.00,SSW,192,12.0,23.0,85,0.00,,,0.21,408.000000,,2013-04-19 18:43:00,
2013-04-19 14:52:00,74.0,69.0,-100.00,SSW,192,12.0,23.0,85,0.00,,,0.21,408.000000,,2013-04-19 18:52:00,
2013-04-19 15:02:00,74.0,69.0,-100.00,SSW,192,12.0,23.0,85,0.00,,,0.21,408.000000,,2013-04-19 19:02:00,
2013-04-19 15:32:00,77.0,70.0,-100.00,SSW,196,15.0,25.0,79,0.00,,,0.21,729.000000,,2013-04-19 19:32:00,
2013-04-19 15:42:00,77.0,70.0,-100.00,SSW,196,15.0,25.0,79,0.00,,,0.21,729.000000,,2013-04-19 19:42:00,
2013-04-19 15:52:00,77.0,70.0,-100.00,SSW,196,15.0,25.0,79,0.00,,,0.21,729.000000,,2013-04-19 19:52:00,
2013-04-19 16:02:00,77.0,70.0,-100.00,SSW,196,15.0,25.0,79,0.00,,,0.21,729.000000,,2013-04-19 20:02:00,
2013-04-19 16:32:00,74.0,68.0,-100.00,SSW,193,14.0,26.0,83,0.00,,,0.21,490.000000,,2013-04-19 20:32:00,
2013-04-19 16:42:00,74.0,68.0,-100.00,SSW,193,14.0,26.0,83,0.00,,,0.21,490.000000,,2013-04-19 20:42:00,
2013-04-19 16:52:00,74.0,68.0,-100.00,SSW,193,14.0,26.0,83,0.00,,,0.21,490.000000,,2013-04-19 20:52:00,
2013-04-19 17:01:00,74.0,68.0,-100.00,SSW,193,14.0,26.0,83,0.00,,,0.21,490.000000,,2013-04-19 21:01:00,
2013-04-19 18:33:00,71.0,66.0,-100.00,SSW,194,13.0,23.0,84,-99.99,,,0.21,87.000000,,2013-04-19 22:33:00,
2013-04-19 18:42:00,71.0,66.0,-100.00,SSW,194,13.0,23.0,84,-99.99,,,0.21,87.000000,,2013-04-19 22:42:00,
2013-04-19 18:52:00,71.0,66.0,-100.00,SSW,194,13.0,23.0,84,-99.99,,,0.21,87.000000,,2013-04-19 22:52:00,
2013-04-19 19:03:00,71.0,66.0,-100.00,SSW,194,13.0,23.0,84,-99.99,,,0.21,87.000000,,2013-04-19 23:03:00,
2013-04-19 19:32:00,72.0,65.0,-100.00,SSW,195,17.0,32.0,78,0.00,,,0.21,30.000000,,2013-04-19 23:32:00,
2013-04-19 19:42:00,72.0,65.0,-100.00,SSW,195,17.0,32.0,78,0.00,,,0.21,30.000000,,2013-04-19 23:42:00,
2013-04-19 19:53:00,72.0,65.0,-100.00,SSW,195,17.0,32.0,78,0.00,,,0.21,30.000000,,2013-04-19 23:53:00,
2013-04-19 20:02:00,72.0,65.0,-100.00,SSW,195,17.0,32.0,78,0.00,,,0.21,30.000000,,2013-04-20 00:02:00,
2013-04-19 21:32:00,72.0,68.0,-100.00,South,179,14.0,25.0,87,-99.99,,,0.21,0.000000,,2013-04-20 01:32:00,
2013-04-19 21:42:00,72.0,68.0,-100.00,South,179,14.0,25.0,87,-99.99,,,0.21,0.000000,,2013-04-20 01:42:00,
2013-04-19 21:52:00,72.0,68.0,-100.00,South,179,14.0,25.0,87,-99.99,,,0.21,0.000000,,2013-04-20 01:52:00,
2013-04-19 22:02:00,72.0,68.0,-100.00,South,179,14.0,25.0,87,-99.99,,,0.21,0.000000,,2013-04-20 02:02:00,
2013-04-19 22:32:00,71.0,68.0,-100.00,South,185,12.0,25.0,89,0.00,,,0.21,0.000000,,2013-04-20 02:32:00,
2013-04-19 22:42:00,71.0,68.0,-100.00,South,185,12.0,25.0,89,0.00,,,0.21,0.000000,,2013-04-20 02:42:00,
2013-04-19 22:52:00,71.0,68.0,-100.00,South,185,12.0,25.0,89,0.00,,,0.21,0.000000,,2013-04-20 02:52:00,
2013-04-19 23:01:00,71.0,68.0,-100.00,South,185,12.0,25.0,89,0.00,,,0.21,0.000000,,2013-04-20 03:01:00,
2013-04-19 23:33:00,71.0,68.0,-100.00,SSW,198,12.0,24.0,89,0.00,,,0.21,0.000000,,2013-04-20 03:33:00,
2013-04-19 23:43:00,71.0,68.0,-100.00,SSW,198,12.0,24.0,89,0.00,,,0.21,0.000000,,2013-04-20 03:43:00,
2013-04-19 23:53:00,71.0,68.0,-100.00,SSW,198,12.0,24.0,89,0.00,,,0.21,0.000000,,2013-04-20 03:53:00,